sensor_id;sensor_type;location;lat;lon;timestamp;P1;durP1;ratioP1;P2;durP2;ratioP2
72439;SDS011;60446;50.752;4.352;2023-04-24T00:00:03;19.80;;;6.43;;
72439;SDS011;60446;50.752;4.352;2023-04-24T00:02:41;21.25;;;6.00;;
72439;SDS011;60446;50.752;4.352;2023-04-24T00:05:14;16.93;;;5.80;;
72439;SDS011;60446;50.752;4.352;2023-04-24T00:07:42;17.33;;;5.68;;
72439;SDS011;60446;50.752;4.352;2023-04-24T00:10:11;21.35;;;6.18;;
72439;SDS011;60446;50.752;4.352;2023-04-24T00:12:39;15.52;;;6.07;;
72439;SDS011;60446;50.752;4.352;2023-04-24T00:15:06;23.63;;;6.15;;
72439;SDS011;60446;50.752;4.352;2023-04-24T00:17:35;17.27;;;6.20;;
72439;SDS011;60446;50.752;4.352;2023-04-24T00:20:03;17.83;;;5.47;;
72439;SDS011;60446;50.752;4.352;2023-04-24T00:22:33;17.00;;;5.93;;
72439;SDS011;60446;50.752;4.352;2023-04-24T00:25:00;18.30;;;6.45;;
72439;SDS011;60446;50.752;4.352;2023-04-24T00:27:27;19.70;;;6.03;;
72439;SDS011;60446;50.752;4.352;2023-04-24T00:29:55;15.57;;;5.40;;
72439;SDS011;60446;50.752;4.352;2023-04-24T00:32:22;17.00;;;5.07;;
72439;SDS011;60446;50.752;4.352;2023-04-24T00:34:49;17.27;;;7.18;;
72439;SDS011;60446;50.752;4.352;2023-04-24T00:37:16;15.40;;;5.57;;
72439;SDS011;60446;50.752;4.352;2023-04-24T00:39:43;20.80;;;5.85;;
72439;SDS011;60446;50.752;4.352;2023-04-24T00:42:11;20.50;;;6.20;;
72439;SDS011;60446;50.752;4.352;2023-04-24T00:44:38;13.43;;;5.70;;
72439;SDS011;60446;50.752;4.352;2023-04-24T00:47:06;16.85;;;6.18;;
72439;SDS011;60446;50.752;4.352;2023-04-24T00:49:34;21.48;;;6.63;;
72439;SDS011;60446;50.752;4.352;2023-04-24T00:52:01;15.45;;;5.57;;
72439;SDS011;60446;50.752;4.352;2023-04-24T00:54:34;20.43;;;5.63;;
72439;SDS011;60446;50.752;4.352;2023-04-24T00:57:02;14.10;;;6.10;;
72439;SDS011;60446;50.752;4.352;2023-04-24T00:59:30;19.25;;;6.38;;
72439;SDS011;60446;50.752;4.352;2023-04-24T01:01:58;15.35;;;5.55;;
72439;SDS011;60446;50.752;4.352;2023-04-24T01:04:25;17.77;;;6.10;;
72439;SDS011;60446;50.752;4.352;2023-04-24T01:06:54;18.17;;;6.10;;
72439;SDS011;60446;50.752;4.352;2023-04-24T01:09:25;22.00;;;6.85;;
72439;SDS011;60446;50.752;4.352;2023-04-24T01:11:53;20.73;;;6.97;;
72439;SDS011;60446;50.752;4.352;2023-04-24T01:14:20;19.73;;;6.97;;
72439;SDS011;60446;50.752;4.352;2023-04-24T01:16:48;19.13;;;7.03;;
72439;SDS011;60446;50.752;4.352;2023-04-24T01:19:16;18.67;;;6.90;;
72439;SDS011;60446;50.752;4.352;2023-04-24T01:21:44;19.75;;;6.40;;
72439;SDS011;60446;50.752;4.352;2023-04-24T01:24:17;17.05;;;6.07;;
72439;SDS011;60446;50.752;4.352;2023-04-24T01:26:46;21.65;;;6.90;;
72439;SDS011;60446;50.752;4.352;2023-04-24T01:29:13;15.85;;;5.68;;
72439;SDS011;60446;50.752;4.352;2023-04-24T01:31:42;18.10;;;5.70;;
72439;SDS011;60446;50.752;4.352;2023-04-24T01:34:09;20.85;;;6.28;;
72439;SDS011;60446;50.752;4.352;2023-04-24T01:36:37;20.02;;;7.05;;
72439;SDS011;60446;50.752;4.352;2023-04-24T01:39:05;18.85;;;5.97;;
72439;SDS011;60446;50.752;4.352;2023-04-24T01:41:33;16.88;;;5.35;;
72439;SDS011;60446;50.752;4.352;2023-04-24T01:44:00;16.43;;;5.80;;
72439;SDS011;60446;50.752;4.352;2023-04-24T01:46:28;19.85;;;7.15;;
72439;SDS011;60446;50.752;4.352;2023-04-24T01:48:58;18.00;;;6.70;;
72439;SDS011;60446;50.752;4.352;2023-04-24T01:51:27;18.92;;;6.40;;
72439;SDS011;60446;50.752;4.352;2023-04-24T01:53:55;23.48;;;6.82;;
72439;SDS011;60446;50.752;4.352;2023-04-24T01:56:23;19.03;;;6.13;;
72439;SDS011;60446;50.752;4.352;2023-04-24T01:58:51;29.23;;;7.25;;
72439;SDS011;60446;50.752;4.352;2023-04-24T02:01:20;19.80;;;6.28;;
72439;SDS011;60446;50.752;4.352;2023-04-24T02:03:47;20.10;;;7.40;;
72439;SDS011;60446;50.752;4.352;2023-04-24T02:06:15;20.67;;;7.43;;
72439;SDS011;60446;50.752;4.352;2023-04-24T02:08:42;18.70;;;6.50;;
72439;SDS011;60446;50.752;4.352;2023-04-24T02:11:09;23.80;;;7.38;;
72439;SDS011;60446;50.752;4.352;2023-04-24T02:13:36;20.27;;;7.68;;
72439;SDS011;60446;50.752;4.352;2023-04-24T02:16:04;21.70;;;7.90;;
72439;SDS011;60446;50.752;4.352;2023-04-24T02:18:31;20.40;;;7.55;;
72439;SDS011;60446;50.752;4.352;2023-04-24T02:20:58;20.43;;;6.73;;
72439;SDS011;60446;50.752;4.352;2023-04-24T02:23:26;20.35;;;7.72;;
72439;SDS011;60446;50.752;4.352;2023-04-24T02:25:53;18.25;;;7.00;;
72439;SDS011;60446;50.752;4.352;2023-04-24T02:28:20;19.40;;;7.13;;
72439;SDS011;60446;50.752;4.352;2023-04-24T02:30:49;20.48;;;6.90;;
72439;SDS011;60446;50.752;4.352;2023-04-24T02:33:19;18.63;;;7.07;;
72439;SDS011;60446;50.752;4.352;2023-04-24T02:35:47;19.50;;;6.90;;
72439;SDS011;60446;50.752;4.352;2023-04-24T02:38:14;19.40;;;6.25;;
72439;SDS011;60446;50.752;4.352;2023-04-24T02:40:42;20.00;;;6.03;;
72439;SDS011;60446;50.752;4.352;2023-04-24T02:43:09;21.02;;;6.60;;
72439;SDS011;60446;50.752;4.352;2023-04-24T02:45:36;20.87;;;6.60;;
72439;SDS011;60446;50.752;4.352;2023-04-24T02:48:04;15.77;;;5.45;;
72439;SDS011;60446;50.752;4.352;2023-04-24T02:50:32;21.45;;;6.03;;
72439;SDS011;60446;50.752;4.352;2023-04-24T02:52:59;16.20;;;4.95;;
72439;SDS011;60446;50.752;4.352;2023-04-24T02:55:27;15.68;;;6.05;;
72439;SDS011;60446;50.752;4.352;2023-04-24T02:57:54;17.03;;;5.73;;
72439;SDS011;60446;50.752;4.352;2023-04-24T03:00:21;16.60;;;6.90;;
72439;SDS011;60446;50.752;4.352;2023-04-24T03:02:48;17.95;;;5.88;;
72439;SDS011;60446;50.752;4.352;2023-04-24T03:05:16;18.35;;;6.70;;
72439;SDS011;60446;50.752;4.352;2023-04-24T03:07:43;20.92;;;6.20;;
72439;SDS011;60446;50.752;4.352;2023-04-24T03:10:11;16.87;;;5.93;;
72439;SDS011;60446;50.752;4.352;2023-04-24T03:12:39;17.55;;;6.03;;
72439;SDS011;60446;50.752;4.352;2023-04-24T03:15:06;15.48;;;6.47;;
72439;SDS011;60446;50.752;4.352;2023-04-24T03:17:36;18.65;;;6.03;;
72439;SDS011;60446;50.752;4.352;2023-04-24T03:20:03;17.30;;;5.35;;
72439;SDS011;60446;50.752;4.352;2023-04-24T03:22:35;14.50;;;5.10;;
72439;SDS011;60446;50.752;4.352;2023-04-24T03:25:05;15.52;;;5.72;;
72439;SDS011;60446;50.752;4.352;2023-04-24T03:27:35;17.67;;;6.20;;
72439;SDS011;60446;50.752;4.352;2023-04-24T03:30:15;14.80;;;5.63;;
72439;SDS011;60446;50.752;4.352;2023-04-24T03:32:48;18.58;;;6.15;;
72439;SDS011;60446;50.752;4.352;2023-04-24T03:35:20;17.47;;;6.63;;
72439;SDS011;60446;50.752;4.352;2023-04-24T03:37:48;17.20;;;5.70;;
72439;SDS011;60446;50.752;4.352;2023-04-24T03:40:34;18.98;;;5.65;;
72439;SDS011;60446;50.752;4.352;2023-04-24T03:43:07;19.02;;;5.75;;
72439;SDS011;60446;50.752;4.352;2023-04-24T03:45:35;13.55;;;4.93;;
72439;SDS011;60446;50.752;4.352;2023-04-24T03:48:03;14.77;;;4.43;;
72439;SDS011;60446;50.752;4.352;2023-04-24T03:50:30;15.48;;;5.00;;
72439;SDS011;60446;50.752;4.352;2023-04-24T03:52:58;15.45;;;5.45;;
72439;SDS011;60446;50.752;4.352;2023-04-24T03:55:35;11.90;;;4.40;;
72439;SDS011;60446;50.752;4.352;2023-04-24T03:58:02;13.55;;;4.70;;
72439;SDS011;60446;50.752;4.352;2023-04-24T04:00:29;12.40;;;4.50;;
72439;SDS011;60446;50.752;4.352;2023-04-24T04:03:18;15.77;;;5.18;;
72439;SDS011;60446;50.752;4.352;2023-04-24T04:05:46;14.38;;;5.18;;
72439;SDS011;60446;50.752;4.352;2023-04-24T04:08:13;15.82;;;4.47;;
72439;SDS011;60446;50.752;4.352;2023-04-24T04:10:41;14.18;;;4.85;;
72439;SDS011;60446;50.752;4.352;2023-04-24T04:13:08;13.07;;;4.23;;
72439;SDS011;60446;50.752;4.352;2023-04-24T04:15:35;11.68;;;4.20;;
72439;SDS011;60446;50.752;4.352;2023-04-24T04:18:02;12.13;;;4.30;;
72439;SDS011;60446;50.752;4.352;2023-04-24T04:20:30;11.70;;;4.03;;
72439;SDS011;60446;50.752;4.352;2023-04-24T04:22:57;11.25;;;3.55;;
72439;SDS011;60446;50.752;4.352;2023-04-24T04:25:36;11.97;;;3.87;;
72439;SDS011;60446;50.752;4.352;2023-04-24T04:28:03;9.88;;;3.60;;
72439;SDS011;60446;50.752;4.352;2023-04-24T04:30:31;11.55;;;4.25;;
72439;SDS011;60446;50.752;4.352;2023-04-24T04:33:01;9.95;;;3.42;;
72439;SDS011;60446;50.752;4.352;2023-04-24T04:35:30;9.45;;;3.80;;
72439;SDS011;60446;50.752;4.352;2023-04-24T04:37:58;10.60;;;3.17;;
72439;SDS011;60446;50.752;4.352;2023-04-24T04:40:38;11.38;;;4.28;;
72439;SDS011;60446;50.752;4.352;2023-04-24T04:43:05;10.43;;;3.67;;
72439;SDS011;60446;50.752;4.352;2023-04-24T04:45:42;9.82;;;3.13;;
72439;SDS011;60446;50.752;4.352;2023-04-24T04:48:31;12.10;;;4.32;;
72439;SDS011;60446;50.752;4.352;2023-04-24T04:51:01;10.63;;;3.60;;
72439;SDS011;60446;50.752;4.352;2023-04-24T04:53:28;14.00;;;4.30;;
72439;SDS011;60446;50.752;4.352;2023-04-24T04:55:55;12.77;;;4.32;;
72439;SDS011;60446;50.752;4.352;2023-04-24T04:58:29;10.13;;;3.97;;
72439;SDS011;60446;50.752;4.352;2023-04-24T05:00:59;11.18;;;4.20;;
72439;SDS011;60446;50.752;4.352;2023-04-24T05:03:34;12.27;;;3.67;;
72439;SDS011;60446;50.752;4.352;2023-04-24T05:06:06;14.40;;;4.38;;
72439;SDS011;60446;50.752;4.352;2023-04-24T05:08:36;13.65;;;4.63;;
72439;SDS011;60446;50.752;4.352;2023-04-24T05:11:07;19.55;;;6.28;;
72439;SDS011;60446;50.752;4.352;2023-04-24T05:13:35;14.18;;;4.82;;
72439;SDS011;60446;50.752;4.352;2023-04-24T05:16:17;13.93;;;4.77;;
72439;SDS011;60446;50.752;4.352;2023-04-24T05:18:44;15.68;;;5.47;;
72439;SDS011;60446;50.752;4.352;2023-04-24T05:21:14;17.20;;;6.07;;
72439;SDS011;60446;50.752;4.352;2023-04-24T05:23:45;14.80;;;5.50;;
72439;SDS011;60446;50.752;4.352;2023-04-24T05:26:17;18.58;;;6.30;;
72439;SDS011;60446;50.752;4.352;2023-04-24T05:28:44;16.43;;;5.00;;
72439;SDS011;60446;50.752;4.352;2023-04-24T05:31:12;14.40;;;5.25;;
72439;SDS011;60446;50.752;4.352;2023-04-24T05:33:39;15.98;;;5.78;;
72439;SDS011;60446;50.752;4.352;2023-04-24T05:36:06;19.05;;;5.97;;
72439;SDS011;60446;50.752;4.352;2023-04-24T05:38:34;17.98;;;5.88;;
72439;SDS011;60446;50.752;4.352;2023-04-24T05:41:02;15.33;;;5.67;;
72439;SDS011;60446;50.752;4.352;2023-04-24T05:43:29;19.90;;;6.30;;
72439;SDS011;60446;50.752;4.352;2023-04-24T05:45:56;15.38;;;6.03;;
72439;SDS011;60446;50.752;4.352;2023-04-24T05:48:23;21.40;;;5.65;;
72439;SDS011;60446;50.752;4.352;2023-04-24T05:50:51;18.58;;;6.05;;
72439;SDS011;60446;50.752;4.352;2023-04-24T05:53:19;23.17;;;5.87;;
72439;SDS011;60446;50.752;4.352;2023-04-24T05:55:46;14.93;;;5.60;;
72439;SDS011;60446;50.752;4.352;2023-04-24T05:58:14;18.95;;;6.03;;
72439;SDS011;60446;50.752;4.352;2023-04-24T06:00:41;15.70;;;5.72;;
72439;SDS011;60446;50.752;4.352;2023-04-24T06:03:11;17.52;;;5.40;;
72439;SDS011;60446;50.752;4.352;2023-04-24T06:05:39;16.30;;;5.40;;
72439;SDS011;60446;50.752;4.352;2023-04-24T06:08:07;18.00;;;5.85;;
72439;SDS011;60446;50.752;4.352;2023-04-24T06:10:37;17.85;;;5.15;;
72439;SDS011;60446;50.752;4.352;2023-04-24T06:13:06;14.45;;;5.38;;
72439;SDS011;60446;50.752;4.352;2023-04-24T06:15:36;19.30;;;4.85;;
72439;SDS011;60446;50.752;4.352;2023-04-24T06:18:06;16.80;;;5.50;;
72439;SDS011;60446;50.752;4.352;2023-04-24T06:20:37;17.85;;;5.85;;
72439;SDS011;60446;50.752;4.352;2023-04-24T06:23:04;16.08;;;5.97;;
72439;SDS011;60446;50.752;4.352;2023-04-24T06:25:32;17.67;;;6.13;;
72439;SDS011;60446;50.752;4.352;2023-04-24T06:27:59;16.33;;;5.30;;
72439;SDS011;60446;50.752;4.352;2023-04-24T06:30:29;21.67;;;6.90;;
72439;SDS011;60446;50.752;4.352;2023-04-24T06:32:56;16.48;;;6.38;;
72439;SDS011;60446;50.752;4.352;2023-04-24T06:35:38;20.83;;;7.07;;
72439;SDS011;60446;50.752;4.352;2023-04-24T06:38:05;31.92;;;7.63;;
72439;SDS011;60446;50.752;4.352;2023-04-24T06:40:32;23.13;;;7.38;;
72439;SDS011;60446;50.752;4.352;2023-04-24T06:42:59;20.37;;;7.03;;
72439;SDS011;60446;50.752;4.352;2023-04-24T06:45:29;22.15;;;7.53;;
72439;SDS011;60446;50.752;4.352;2023-04-24T06:47:56;21.08;;;7.97;;
72439;SDS011;60446;50.752;4.352;2023-04-24T06:50:23;18.77;;;7.22;;
72439;SDS011;60446;50.752;4.352;2023-04-24T06:52:51;24.52;;;6.88;;
72439;SDS011;60446;50.752;4.352;2023-04-24T06:55:18;19.27;;;7.67;;
72439;SDS011;60446;50.752;4.352;2023-04-24T06:57:45;23.23;;;7.57;;
72439;SDS011;60446;50.752;4.352;2023-04-24T07:00:13;23.58;;;8.27;;
72439;SDS011;60446;50.752;4.352;2023-04-24T07:02:40;23.95;;;7.45;;
72439;SDS011;60446;50.752;4.352;2023-04-24T07:05:07;25.15;;;7.88;;
72439;SDS011;60446;50.752;4.352;2023-04-24T07:07:35;19.27;;;7.30;;
72439;SDS011;60446;50.752;4.352;2023-04-24T07:10:04;20.63;;;7.53;;
72439;SDS011;60446;50.752;4.352;2023-04-24T07:12:32;20.48;;;6.80;;
72439;SDS011;60446;50.752;4.352;2023-04-24T07:15:00;18.45;;;7.45;;
72439;SDS011;60446;50.752;4.352;2023-04-24T07:17:27;23.20;;;7.25;;
72439;SDS011;60446;50.752;4.352;2023-04-24T07:19:54;21.63;;;6.83;;
72439;SDS011;60446;50.752;4.352;2023-04-24T07:22:21;23.83;;;8.02;;
72439;SDS011;60446;50.752;4.352;2023-04-24T07:24:49;24.00;;;7.70;;
72439;SDS011;60446;50.752;4.352;2023-04-24T07:27:16;23.33;;;7.50;;
72439;SDS011;60446;50.752;4.352;2023-04-24T07:29:43;19.85;;;7.60;;
72439;SDS011;60446;50.752;4.352;2023-04-24T07:32:11;20.07;;;7.00;;
72439;SDS011;60446;50.752;4.352;2023-04-24T07:34:38;19.02;;;7.07;;
72439;SDS011;60446;50.752;4.352;2023-04-24T07:37:05;19.13;;;7.38;;
72439;SDS011;60446;50.752;4.352;2023-04-24T07:39:32;20.83;;;7.85;;
72439;SDS011;60446;50.752;4.352;2023-04-24T07:41:59;16.40;;;6.30;;
72439;SDS011;60446;50.752;4.352;2023-04-24T07:44:28;17.80;;;6.83;;
72439;SDS011;60446;50.752;4.352;2023-04-24T07:46:55;19.98;;;7.10;;
72439;SDS011;60446;50.752;4.352;2023-04-24T07:49:23;18.95;;;6.72;;
72439;SDS011;60446;50.752;4.352;2023-04-24T07:51:50;18.52;;;6.35;;
72439;SDS011;60446;50.752;4.352;2023-04-24T07:54:17;17.63;;;6.22;;
72439;SDS011;60446;50.752;4.352;2023-04-24T07:56:44;21.83;;;6.63;;
72439;SDS011;60446;50.752;4.352;2023-04-24T07:59:11;18.20;;;6.60;;
72439;SDS011;60446;50.752;4.352;2023-04-24T08:01:39;14.82;;;5.72;;
72439;SDS011;60446;50.752;4.352;2023-04-24T08:04:06;16.40;;;5.78;;
72439;SDS011;60446;50.752;4.352;2023-04-24T08:06:34;20.83;;;6.78;;
72439;SDS011;60446;50.752;4.352;2023-04-24T08:09:01;21.23;;;6.77;;
72439;SDS011;60446;50.752;4.352;2023-04-24T08:11:29;20.80;;;7.47;;
72439;SDS011;60446;50.752;4.352;2023-04-24T08:13:56;18.80;;;6.38;;
72439;SDS011;60446;50.752;4.352;2023-04-24T08:16:23;17.63;;;6.97;;
72439;SDS011;60446;50.752;4.352;2023-04-24T08:18:51;23.75;;;6.53;;
72439;SDS011;60446;50.752;4.352;2023-04-24T08:21:19;15.93;;;5.23;;
72439;SDS011;60446;50.752;4.352;2023-04-24T08:23:47;16.52;;;6.43;;
72439;SDS011;60446;50.752;4.352;2023-04-24T08:26:14;15.95;;;6.13;;
72439;SDS011;60446;50.752;4.352;2023-04-24T08:28:41;19.58;;;7.07;;
72439;SDS011;60446;50.752;4.352;2023-04-24T08:31:09;18.48;;;5.82;;
72439;SDS011;60446;50.752;4.352;2023-04-24T08:33:36;15.67;;;5.80;;
72439;SDS011;60446;50.752;4.352;2023-04-24T08:36:04;16.75;;;5.97;;
72439;SDS011;60446;50.752;4.352;2023-04-24T08:38:32;15.68;;;5.78;;
72439;SDS011;60446;50.752;4.352;2023-04-24T08:41:00;17.27;;;5.40;;
72439;SDS011;60446;50.752;4.352;2023-04-24T08:43:28;13.88;;;5.60;;
72439;SDS011;60446;50.752;4.352;2023-04-24T08:45:55;14.07;;;5.40;;
72439;SDS011;60446;50.752;4.352;2023-04-24T08:48:25;16.80;;;5.25;;
72439;SDS011;60446;50.752;4.352;2023-04-24T08:50:58;16.42;;;5.18;;
72439;SDS011;60446;50.752;4.352;2023-04-24T08:53:25;12.95;;;4.53;;
72439;SDS011;60446;50.752;4.352;2023-04-24T08:55:54;11.00;;;4.45;;
72439;SDS011;60446;50.752;4.352;2023-04-24T08:58:25;12.73;;;4.40;;
72439;SDS011;60446;50.752;4.352;2023-04-24T09:00:56;15.20;;;4.75;;
72439;SDS011;60446;50.752;4.352;2023-04-24T09:03:26;9.93;;;3.47;;
72439;SDS011;60446;50.752;4.352;2023-04-24T09:05:55;12.40;;;4.30;;
72439;SDS011;60446;50.752;4.352;2023-04-24T09:08:24;10.50;;;3.75;;
72439;SDS011;60446;50.752;4.352;2023-04-24T09:10:52;11.73;;;3.03;;
72439;SDS011;60446;50.752;4.352;2023-04-24T09:13:19;10.00;;;3.05;;
72439;SDS011;60446;50.752;4.352;2023-04-24T09:15:47;8.02;;;2.58;;
72439;SDS011;60446;50.752;4.352;2023-04-24T09:18:17;12.88;;;2.83;;
72439;SDS011;60446;50.752;4.352;2023-04-24T09:23:29;12.47;;;4.20;;
72439;SDS011;60446;50.752;4.352;2023-04-24T09:25:57;9.95;;;3.25;;
72439;SDS011;60446;50.752;4.352;2023-04-24T09:28:29;10.15;;;3.67;;
72439;SDS011;60446;50.752;4.352;2023-04-24T09:31:04;11.52;;;3.53;;
72439;SDS011;60446;50.752;4.352;2023-04-24T09:33:57;13.35;;;4.00;;
72439;SDS011;60446;50.752;4.352;2023-04-24T09:36:41;12.87;;;3.67;;
72439;SDS011;60446;50.752;4.352;2023-04-24T09:39:10;9.32;;;3.85;;
72439;SDS011;60446;50.752;4.352;2023-04-24T09:41:54;10.88;;;3.40;;
72439;SDS011;60446;50.752;4.352;2023-04-24T09:44:27;10.27;;;3.67;;
72439;SDS011;60446;50.752;4.352;2023-04-24T09:46:55;10.93;;;3.20;;
72439;SDS011;60446;50.752;4.352;2023-04-24T09:49:25;8.93;;;2.90;;
72439;SDS011;60446;50.752;4.352;2023-04-24T09:52:04;9.27;;;3.10;;
72439;SDS011;60446;50.752;4.352;2023-04-24T09:54:33;10.02;;;3.22;;
72439;SDS011;60446;50.752;4.352;2023-04-24T09:57:03;9.98;;;2.72;;
72439;SDS011;60446;50.752;4.352;2023-04-24T09:59:30;9.55;;;2.45;;
72439;SDS011;60446;50.752;4.352;2023-04-24T10:01:57;10.03;;;2.87;;
72439;SDS011;60446;50.752;4.352;2023-04-24T10:04:27;7.68;;;2.38;;
72439;SDS011;60446;50.752;4.352;2023-04-24T10:06:56;9.25;;;2.75;;
72439;SDS011;60446;50.752;4.352;2023-04-24T10:09:24;8.25;;;2.78;;
72439;SDS011;60446;50.752;4.352;2023-04-24T10:11:53;8.70;;;2.42;;
72439;SDS011;60446;50.752;4.352;2023-04-24T10:14:22;8.10;;;2.63;;
72439;SDS011;60446;50.752;4.352;2023-04-24T10:16:54;11.98;;;2.70;;
72439;SDS011;60446;50.752;4.352;2023-04-24T10:19:25;11.88;;;3.10;;
72439;SDS011;60446;50.752;4.352;2023-04-24T10:21:53;9.45;;;3.15;;
72439;SDS011;60446;50.752;4.352;2023-04-24T10:24:22;9.88;;;3.05;;
72439;SDS011;60446;50.752;4.352;2023-04-24T10:26:49;9.17;;;2.90;;
72439;SDS011;60446;50.752;4.352;2023-04-24T10:29:17;10.20;;;2.83;;
72439;SDS011;60446;50.752;4.352;2023-04-24T10:31:46;10.13;;;3.28;;
72439;SDS011;60446;50.752;4.352;2023-04-24T10:34:15;8.50;;;3.10;;
72439;SDS011;60446;50.752;4.352;2023-04-24T10:36:53;8.55;;;2.88;;
72439;SDS011;60446;50.752;4.352;2023-04-24T10:39:23;9.07;;;3.17;;
72439;SDS011;60446;50.752;4.352;2023-04-24T10:41:53;10.63;;;2.80;;
72439;SDS011;60446;50.752;4.352;2023-04-24T10:44:25;8.98;;;2.65;;
72439;SDS011;60446;50.752;4.352;2023-04-24T10:47:02;13.20;;;3.50;;
72439;SDS011;60446;50.752;4.352;2023-04-24T10:49:31;9.65;;;3.03;;
72439;SDS011;60446;50.752;4.352;2023-04-24T10:52:02;9.07;;;3.07;;
72439;SDS011;60446;50.752;4.352;2023-04-24T10:54:35;12.23;;;3.35;;
72439;SDS011;60446;50.752;4.352;2023-04-24T10:57:28;8.43;;;3.13;;
72439;SDS011;60446;50.752;4.352;2023-04-24T11:00:10;13.93;;;3.60;;
72439;SDS011;60446;50.752;4.352;2023-04-24T11:02:42;9.88;;;3.38;;
72439;SDS011;60446;50.752;4.352;2023-04-24T11:05:16;12.07;;;3.70;;
72439;SDS011;60446;50.752;4.352;2023-04-24T11:11:02;10.82;;;4.13;;
72439;SDS011;60446;50.752;4.352;2023-04-24T11:16:21;13.57;;;4.60;;
72439;SDS011;60446;50.752;4.352;2023-04-24T11:21:48;12.50;;;3.92;;
72439;SDS011;60446;50.752;4.352;2023-04-24T11:27:07;10.80;;;3.78;;
72439;SDS011;60446;50.752;4.352;2023-04-24T11:29:58;14.10;;;3.95;;
72439;SDS011;60446;50.752;4.352;2023-04-24T11:32:38;13.57;;;3.97;;
72439;SDS011;60446;50.752;4.352;2023-04-24T11:37:52;13.02;;;4.32;;
72439;SDS011;60446;50.752;4.352;2023-04-24T11:40:22;11.13;;;3.78;;
72439;SDS011;60446;50.752;4.352;2023-04-24T11:42:51;11.13;;;3.80;;
72439;SDS011;60446;50.752;4.352;2023-04-24T11:45:31;10.13;;;3.87;;
72439;SDS011;60446;50.752;4.352;2023-04-24T11:48:02;16.30;;;4.10;;
72439;SDS011;60446;50.752;4.352;2023-04-24T11:50:37;13.43;;;4.70;;
72439;SDS011;60446;50.752;4.352;2023-04-24T11:53:04;13.50;;;4.72;;
72439;SDS011;60446;50.752;4.352;2023-04-24T11:55:31;13.60;;;4.22;;
72439;SDS011;60446;50.752;4.352;2023-04-24T11:58:01;13.30;;;4.47;;
72439;SDS011;60446;50.752;4.352;2023-04-24T12:00:29;14.10;;;5.00;;
72439;SDS011;60446;50.752;4.352;2023-04-24T12:03:07;11.93;;;4.47;;
72439;SDS011;60446;50.752;4.352;2023-04-24T12:05:44;12.65;;;4.80;;
72439;SDS011;60446;50.752;4.352;2023-04-24T12:08:26;15.65;;;4.70;;
72439;SDS011;60446;50.752;4.352;2023-04-24T12:10:55;10.83;;;4.00;;
72439;SDS011;60446;50.752;4.352;2023-04-24T12:13:26;14.07;;;4.78;;
72439;SDS011;60446;50.752;4.352;2023-04-24T12:15:57;14.65;;;4.90;;
72439;SDS011;60446;50.752;4.352;2023-04-24T12:18:29;15.80;;;5.25;;
72439;SDS011;60446;50.752;4.352;2023-04-24T12:21:16;12.02;;;4.43;;
72439;SDS011;60446;50.752;4.352;2023-04-24T12:23:48;12.33;;;4.43;;
72439;SDS011;60446;50.752;4.352;2023-04-24T12:26:27;10.50;;;4.45;;
72439;SDS011;60446;50.752;4.352;2023-04-24T12:29:01;12.30;;;4.53;;
72439;SDS011;60446;50.752;4.352;2023-04-24T12:31:38;11.15;;;4.32;;
72439;SDS011;60446;50.752;4.352;2023-04-24T12:34:17;16.30;;;4.22;;
72439;SDS011;60446;50.752;4.352;2023-04-24T12:36:51;13.43;;;4.13;;
72439;SDS011;60446;50.752;4.352;2023-04-24T12:39:21;13.18;;;4.53;;
72439;SDS011;60446;50.752;4.352;2023-04-24T12:41:55;11.70;;;4.38;;
72439;SDS011;60446;50.752;4.352;2023-04-24T12:44:31;11.13;;;3.72;;
72439;SDS011;60446;50.752;4.352;2023-04-24T12:47:03;10.93;;;4.00;;
72439;SDS011;60446;50.752;4.352;2023-04-24T12:49:37;12.73;;;4.13;;
72439;SDS011;60446;50.752;4.352;2023-04-24T12:52:05;12.23;;;4.18;;
72439;SDS011;60446;50.752;4.352;2023-04-24T12:54:33;12.35;;;4.45;;
72439;SDS011;60446;50.752;4.352;2023-04-24T12:57:09;11.18;;;4.20;;
72439;SDS011;60446;50.752;4.352;2023-04-24T12:59:39;11.18;;;3.95;;
72439;SDS011;60446;50.752;4.352;2023-04-24T13:02:07;11.90;;;4.10;;
72439;SDS011;60446;50.752;4.352;2023-04-24T13:04:40;14.07;;;4.20;;
72439;SDS011;60446;50.752;4.352;2023-04-24T13:07:10;11.88;;;4.68;;
72439;SDS011;60446;50.752;4.352;2023-04-24T13:09:43;14.73;;;4.57;;
72439;SDS011;60446;50.752;4.352;2023-04-24T13:12:14;14.25;;;4.95;;
72439;SDS011;60446;50.752;4.352;2023-04-24T13:14:45;12.27;;;3.77;;
72439;SDS011;60446;50.752;4.352;2023-04-24T13:17:23;13.43;;;4.20;;
72439;SDS011;60446;50.752;4.352;2023-04-24T13:19:51;14.40;;;4.68;;
72439;SDS011;60446;50.752;4.352;2023-04-24T13:22:23;12.02;;;3.97;;
72439;SDS011;60446;50.752;4.352;2023-04-24T13:24:54;10.30;;;3.80;;
72439;SDS011;60446;50.752;4.352;2023-04-24T13:27:22;8.87;;;3.47;;
72439;SDS011;60446;50.752;4.352;2023-04-24T13:29:53;9.70;;;3.70;;
72439;SDS011;60446;50.752;4.352;2023-04-24T13:32:23;9.65;;;4.30;;
72439;SDS011;60446;50.752;4.352;2023-04-24T13:34:54;9.38;;;3.95;;
72439;SDS011;60446;50.752;4.352;2023-04-24T13:37:24;12.68;;;3.60;;
72439;SDS011;60446;50.752;4.352;2023-04-24T13:39:54;9.80;;;3.70;;
72439;SDS011;60446;50.752;4.352;2023-04-24T13:42:21;8.70;;;3.40;;
72439;SDS011;60446;50.752;4.352;2023-04-24T13:44:49;10.13;;;3.08;;
72439;SDS011;60446;50.752;4.352;2023-04-24T13:47:25;14.02;;;3.45;;
72439;SDS011;60446;50.752;4.352;2023-04-24T13:49:54;7.45;;;3.10;;
72439;SDS011;60446;50.752;4.352;2023-04-24T13:52:22;8.93;;;3.60;;
72439;SDS011;60446;50.752;4.352;2023-04-24T13:54:50;8.55;;;3.08;;
72439;SDS011;60446;50.752;4.352;2023-04-24T13:57:25;8.57;;;2.92;;
72439;SDS011;60446;50.752;4.352;2023-04-24T13:59:53;7.60;;;2.58;;
72439;SDS011;60446;50.752;4.352;2023-04-24T14:02:22;10.18;;;2.67;;
72439;SDS011;60446;50.752;4.352;2023-04-24T14:04:49;7.93;;;2.43;;
72439;SDS011;60446;50.752;4.352;2023-04-24T14:07:17;8.55;;;2.60;;
72439;SDS011;60446;50.752;4.352;2023-04-24T14:09:47;11.73;;;2.42;;
72439;SDS011;60446;50.752;4.352;2023-04-24T14:12:16;7.55;;;2.25;;
72439;SDS011;60446;50.752;4.352;2023-04-24T14:14:47;8.73;;;2.55;;
72439;SDS011;60446;50.752;4.352;2023-04-24T14:17:20;8.57;;;2.03;;
72439;SDS011;60446;50.752;4.352;2023-04-24T14:19:52;6.32;;;2.03;;
72439;SDS011;60446;50.752;4.352;2023-04-24T14:22:22;8.07;;;2.20;;
72439;SDS011;60446;50.752;4.352;2023-04-24T14:24:53;7.20;;;2.38;;
72439;SDS011;60446;50.752;4.352;2023-04-24T14:27:24;6.72;;;1.75;;
72439;SDS011;60446;50.752;4.352;2023-04-24T14:29:57;7.77;;;1.90;;
72439;SDS011;60446;50.752;4.352;2023-04-24T14:32:34;6.03;;;2.17;;
72439;SDS011;60446;50.752;4.352;2023-04-24T14:35:02;5.68;;;1.58;;
72439;SDS011;60446;50.752;4.352;2023-04-24T14:37:30;6.72;;;1.83;;
72439;SDS011;60446;50.752;4.352;2023-04-24T14:39:58;7.97;;;1.50;;
72439;SDS011;60446;50.752;4.352;2023-04-24T14:42:54;7.27;;;1.90;;
72439;SDS011;60446;50.752;4.352;2023-04-24T14:45:24;6.13;;;2.00;;
72439;SDS011;60446;50.752;4.352;2023-04-24T14:48:01;8.20;;;2.00;;
72439;SDS011;60446;50.752;4.352;2023-04-24T14:50:28;6.97;;;1.77;;
72439;SDS011;60446;50.752;4.352;2023-04-24T14:52:57;5.57;;;1.65;;
72439;SDS011;60446;50.752;4.352;2023-04-24T14:55:25;7.37;;;1.70;;
72439;SDS011;60446;50.752;4.352;2023-04-24T14:57:54;4.95;;;1.30;;
72439;SDS011;60446;50.752;4.352;2023-04-24T15:00:26;5.88;;;1.60;;
72439;SDS011;60446;50.752;4.352;2023-04-24T15:02:56;5.82;;;1.35;;
72439;SDS011;60446;50.752;4.352;2023-04-24T15:05:29;5.47;;;1.77;;
72439;SDS011;60446;50.752;4.352;2023-04-24T15:07:57;7.10;;;1.60;;